createdAt,value
2023-05-19T00:00:59.127Z,102951.00
2023-05-19T00:02:05.702Z,102948.88
2023-05-19T00:03:09.245Z,102951.61
2023-05-19T00:04:15.311Z,102950.48
2023-05-19T00:05:18.623Z,102952.34
2023-05-19T00:06:23.071Z,102949.77
2023-05-19T00:07:29.927Z,102952.51
2023-05-19T00:08:34.060Z,102950.35
2023-05-19T00:09:37.226Z,102950.55
2023-05-19T00:10:40.116Z,102950.48
2023-05-19T00:11:43.183Z,102953.66
2023-05-19T00:12:46.089Z,102948.76
2023-05-19T00:13:49.728Z,102949.59
2023-05-19T00:14:52.598Z,102948.84
2023-05-19T00:15:55.619Z,102952.61
2023-05-19T00:16:58.859Z,102952.30
2023-05-19T00:18:02.076Z,102952.13
2023-05-19T00:19:05.809Z,102947.63
2023-05-19T00:20:08.877Z,102952.29
2023-05-19T00:21:11.904Z,102954.69
2023-05-19T00:22:14.766Z,102951.17
2023-05-19T00:23:17.596Z,102950.17
2023-05-19T00:24:20.312Z,102951.69
2023-05-19T00:25:23.109Z,102951.54
2023-05-19T00:26:27.275Z,102952.55
2023-05-19T00:27:36.755Z,102952.03
2023-05-19T00:28:39.520Z,102953.91
2023-05-19T00:29:42.275Z,102953.65
2023-05-19T00:30:45.015Z,102951.73
2023-05-19T00:31:47.805Z,102955.11
2023-05-19T00:32:51.183Z,102956.66
2023-05-19T00:33:54.205Z,102961.30
2023-05-19T00:34:56.986Z,102959.02
2023-05-19T00:36:02.950Z,102959.94
2023-05-19T00:37:05.801Z,102958.58
2023-05-19T00:38:08.591Z,102959.56
2023-05-19T00:39:11.338Z,102957.98
2023-05-19T00:40:14.322Z,102958.73
2023-05-19T00:41:17.539Z,102959.09
2023-05-19T00:42:21.102Z,102957.83
2023-05-19T00:43:23.850Z,102957.45
2023-05-19T00:44:26.835Z,102957.88
2023-05-19T00:45:29.565Z,102958.84
2023-05-19T00:46:32.366Z,102956.91
2023-05-19T00:47:35.222Z,102958.36
2023-05-19T00:48:38.063Z,102956.03
2023-05-19T00:49:41.044Z,102956.44
2023-05-19T00:50:44.414Z,102957.04
2023-05-19T00:51:47.423Z,102958.32
2023-05-19T00:52:51.300Z,102958.23
2023-05-19T00:53:54.269Z,102957.53
2023-05-19T00:54:57.127Z,102958.20
2023-05-19T00:55:59.990Z,102956.06
2023-05-19T00:57:04.253Z,102955.67
2023-05-19T00:58:07.926Z,102953.65
2023-05-19T00:59:10.664Z,102954.86
2023-05-19T01:00:14.070Z,102954.34
2023-05-19T01:01:17.646Z,102954.44
2023-05-19T01:02:21.628Z,102955.35
2023-05-19T01:03:25.312Z,102957.02
2023-05-19T01:04:29.775Z,102959.05
2023-05-19T01:05:32.715Z,102958.66
2023-05-19T01:06:37.987Z,102958.68
2023-05-19T01:07:41.799Z,102954.95
2023-05-19T01:08:44.827Z,102957.02
2023-05-19T01:09:48.755Z,102956.48
2023-05-19T01:10:51.648Z,102954.28
2023-05-19T01:11:54.595Z,102951.88
2023-05-19T01:12:57.366Z,102952.56
2023-05-19T01:14:00.351Z,102952.59
2023-05-19T01:15:04.071Z,102951.77
2023-05-19T01:16:12.642Z,102951.56
2023-05-19T01:17:27.694Z,102952.86
2023-05-19T01:18:44.441Z,102950.38
2023-05-19T01:20:06.699Z,102951.27
2023-05-19T01:21:28.668Z,102948.89
2023-05-19T01:22:32.102Z,102949.55
2023-05-19T01:23:52.011Z,102954.55
2023-05-19T01:25:13.309Z,102951.74
2023-05-19T01:26:42.647Z,102954.66
2023-05-19T01:27:54.470Z,102952.73
2023-05-19T01:29:32.761Z,102952.38
2023-05-19T01:32:05.051Z,102957.23
2023-05-19T01:33:09.479Z,102956.29
2023-05-19T01:34:13.301Z,102952.80
2023-05-19T01:35:16.775Z,102956.39
2023-05-19T01:36:20.445Z,102955.63
2023-05-19T01:37:23.874Z,102952.65
2023-05-19T01:38:28.450Z,102955.58
2023-05-19T01:39:31.918Z,102948.27
2023-05-19T01:40:35.054Z,102947.38
2023-05-19T01:41:38.523Z,102950.10
2023-05-19T01:42:42.103Z,102949.35
2023-05-19T01:43:45.635Z,102948.92
2023-05-19T01:44:48.708Z,102948.71
2023-05-19T01:45:52.119Z,102950.98
2023-05-19T01:46:55.074Z,102950.15
2023-05-19T01:47:59.174Z,102949.48
2023-05-19T01:49:02.182Z,102951.73
2023-05-19T01:50:05.079Z,102951.33
2023-05-19T01:51:07.766Z,102950.61
2023-05-19T01:52:11.292Z,102949.33
2023-05-19T01:53:14.832Z,102950.50
2023-05-19T01:54:17.552Z,102950.42
2023-05-19T01:55:22.849Z,102949.24
2023-05-19T01:56:46.585Z,102949.59
2023-05-19T01:58:07.985Z,102949.37
2023-05-19T01:59:24.169Z,102946.29
2023-05-19T02:00:46.076Z,102949.02
2023-05-19T02:01:53.703Z,102948.51
2023-05-19T02:03:11.893Z,102948.27
2023-05-19T02:04:21.620Z,102947.38
2023-05-19T02:05:33.600Z,102945.85
2023-05-19T02:06:36.287Z,102946.13
2023-05-19T02:07:45.147Z,102945.39
2023-05-19T02:08:50.580Z,102945.77
2023-05-19T02:10:02.751Z,102945.45
2023-05-19T02:11:14.630Z,102944.21
2023-05-19T02:12:23.381Z,102942.08
2023-05-19T02:13:29.957Z,102941.73
2023-05-19T02:14:39.723Z,102942.13
2023-05-19T02:15:43.862Z,102941.61
2023-05-19T02:16:47.957Z,102941.48
2023-05-19T02:17:52.182Z,102942.79
2023-05-19T02:18:55.417Z,102941.70
2023-05-19T02:19:58.180Z,102942.58
2023-05-19T02:21:01.701Z,102940.67
2023-05-19T02:22:04.632Z,102940.71
2023-05-19T02:23:07.332Z,102938.75
2023-05-19T02:24:10.959Z,102938.02
2023-05-19T02:25:14.292Z,102941.09
2023-05-19T02:26:17.304Z,102941.21
2023-05-19T02:27:20.017Z,102938.77
2023-05-19T02:28:23.095Z,102937.95
2023-05-19T02:29:26.037Z,102939.50
2023-05-19T02:30:28.825Z,102938.44
2023-05-19T02:31:31.560Z,102936.59
2023-05-19T02:32:34.701Z,102939.15
2023-05-19T02:33:37.714Z,102939.86
2023-05-19T02:34:42.252Z,102938.81
2023-05-19T02:35:45.001Z,102937.48
2023-05-19T02:36:49.954Z,102937.25
2023-05-19T02:37:52.828Z,102938.06
2023-05-19T02:38:55.977Z,102934.77
2023-05-19T02:39:58.674Z,102937.95
2023-05-19T02:41:01.482Z,102931.98
2023-05-19T02:42:04.311Z,102932.59
2023-05-19T02:43:08.084Z,102934.00
2023-05-19T02:44:10.866Z,102932.28
2023-05-19T02:45:14.339Z,102930.76
2023-05-19T02:46:17.198Z,102933.58
2023-05-19T02:47:20.127Z,102931.79
2023-05-19T02:48:22.882Z,102928.39
2023-05-19T02:49:26.224Z,102933.73
2023-05-19T02:50:30.486Z,102930.83
2023-05-19T02:51:33.288Z,102929.88
2023-05-19T02:52:36.214Z,102926.84
2023-05-19T02:53:38.947Z,102927.53
2023-05-19T02:54:41.682Z,102927.72
2023-05-19T02:55:44.412Z,102929.08
2023-05-19T02:56:47.287Z,102929.96
2023-05-19T02:57:50.548Z,102932.26
2023-05-19T02:58:53.344Z,102931.80
2023-05-19T02:59:56.560Z,102932.92
2023-05-19T03:00:59.305Z,102934.05
2023-05-19T03:02:03.034Z,102934.33
2023-05-19T03:03:05.891Z,102936.52
2023-05-19T03:04:08.757Z,102935.55
2023-05-19T03:05:11.677Z,102935.77
2023-05-19T03:06:15.613Z,102936.59
2023-05-19T03:07:18.451Z,102934.44
2023-05-19T03:08:21.177Z,102940.02
2023-05-19T03:09:23.976Z,102940.81
2023-05-19T03:10:26.853Z,102939.56
2023-05-19T03:11:30.998Z,102938.16
2023-05-19T03:12:33.846Z,102937.07
2023-05-19T03:13:36.700Z,102939.13
2023-05-19T03:14:39.500Z,102934.92
2023-05-19T03:15:42.625Z,102935.04
2023-05-19T03:16:45.792Z,102932.33
2023-05-19T03:17:48.833Z,102935.45
2023-05-19T03:18:52.359Z,102934.48
2023-05-19T03:19:55.109Z,102937.30
2023-05-19T03:20:57.969Z,102934.80
2023-05-19T03:22:00.777Z,102935.30
2023-05-19T03:23:03.601Z,102931.23
2023-05-19T03:24:06.752Z,102932.52
2023-05-19T03:25:10.257Z,102933.09
2023-05-19T03:26:13.688Z,102932.92
2023-05-19T03:27:16.620Z,102932.02
2023-05-19T03:28:20.033Z,102932.10
2023-05-19T03:29:22.868Z,102931.11
2023-05-19T03:30:27.083Z,102934.48
2023-05-19T03:31:53.585Z,102934.96
2023-05-19T03:32:56.467Z,102937.67
2023-05-19T03:33:59.464Z,102934.51
2023-05-19T03:35:02.205Z,102932.45
2023-05-19T03:36:05.371Z,102934.07
2023-05-19T03:37:10.955Z,102932.98
2023-05-19T03:38:15.515Z,102933.91
2023-05-19T03:39:25.169Z,102937.20
2023-05-19T03:40:28.089Z,102940.83
2023-05-19T03:41:36.686Z,102937.78
2023-05-19T03:42:39.864Z,102942.80
2023-05-19T03:43:42.745Z,102942.93
2023-05-19T03:44:46.364Z,102942.40
2023-05-19T03:45:49.460Z,102941.64
2023-05-19T03:47:21.492Z,102941.27
2023-05-19T03:48:36.938Z,102940.15
2023-05-19T03:50:03.254Z,102941.89
2023-05-19T03:51:38.318Z,102943.77
2023-05-19T03:52:53.710Z,102946.48
2023-05-19T03:54:04.631Z,102945.53
2023-05-19T03:55:07.829Z,102945.08
2023-05-19T03:56:13.656Z,102945.30
2023-05-19T03:57:16.686Z,102949.42
2023-05-19T03:58:19.492Z,102948.41
2023-05-19T03:59:23.689Z,102947.98
2023-05-19T04:00:26.623Z,102951.38
2023-05-19T04:01:29.495Z,102948.80
2023-05-19T04:02:33.977Z,102950.02
2023-05-19T04:03:36.991Z,102951.67
2023-05-19T04:04:39.928Z,102951.01
2023-05-19T04:05:42.829Z,102951.17
2023-05-19T04:06:45.716Z,102948.61
2023-05-19T04:07:48.501Z,102952.46
2023-05-19T04:08:51.255Z,102952.51
2023-05-19T04:09:54.339Z,102953.05
2023-05-19T04:10:57.080Z,102953.38
2023-05-19T04:12:00.059Z,102946.11
2023-05-19T04:13:02.883Z,102948.09
2023-05-19T04:14:06.026Z,102950.05
2023-05-19T04:15:11.524Z,102948.05
2023-05-19T04:16:14.642Z,102944.42
2023-05-19T04:17:17.566Z,102943.69
2023-05-19T04:18:20.658Z,102945.69
2023-05-19T04:19:23.576Z,102945.23
2023-05-19T04:20:26.497Z,102941.41
2023-05-19T04:21:29.194Z,102947.23
2023-05-19T04:22:32.168Z,102942.40
2023-05-19T04:23:34.929Z,102946.48
2023-05-19T04:24:37.907Z,102944.78
2023-05-19T04:25:41.939Z,102942.66
2023-05-19T04:26:47.169Z,102942.91
2023-05-19T04:27:53.025Z,102942.77
2023-05-19T04:28:56.622Z,102939.33
2023-05-19T04:29:59.571Z,102941.81
2023-05-19T04:31:03.588Z,102941.10
2023-05-19T04:32:06.801Z,102938.28
2023-05-19T04:33:10.125Z,102936.71
2023-05-19T04:34:13.239Z,102937.86
2023-05-19T04:35:17.840Z,102937.64
2023-05-19T04:36:21.843Z,102939.32
2023-05-19T04:37:26.723Z,102940.43
2023-05-19T04:38:30.108Z,102940.33
2023-05-19T04:39:33.404Z,102940.72
2023-05-19T04:40:37.164Z,102941.57
2023-05-19T04:41:40.595Z,102939.27
2023-05-19T04:42:46.184Z,102939.91
2023-05-19T04:43:50.259Z,102941.66
2023-05-19T04:44:54.147Z,102940.69
2023-05-19T04:45:58.279Z,102939.07
2023-05-19T04:47:01.729Z,102939.52
2023-05-19T04:48:05.140Z,102941.77
2023-05-19T04:49:08.111Z,102941.80
2023-05-19T04:50:11.458Z,102944.14
2023-05-19T04:51:17.742Z,102943.29
2023-05-19T04:52:22.763Z,102942.88
2023-05-19T04:53:26.560Z,102947.56
2023-05-19T04:54:29.390Z,102938.52
2023-05-19T04:55:33.082Z,102944.47
2023-05-19T04:56:36.713Z,102942.45
2023-05-19T04:57:40.547Z,102940.64
2023-05-19T04:58:44.937Z,102940.64
2023-05-19T04:59:48.000Z,102938.59
2023-05-19T05:00:51.629Z,102941.95
2023-05-19T05:01:55.676Z,102946.14
2023-05-19T05:03:00.105Z,102943.27
2023-05-19T05:04:04.913Z,102942.20
2023-05-19T05:05:08.312Z,102944.42
2023-05-19T05:06:11.840Z,102944.42
2023-05-19T05:07:14.653Z,102948.09
2023-05-19T05:08:23.155Z,102948.02
2023-05-19T05:09:26.105Z,102949.13
2023-05-19T05:10:29.386Z,102949.66
2023-05-19T05:11:32.416Z,102950.33
2023-05-19T05:12:36.959Z,102950.94
2023-05-19T05:13:40.301Z,102950.34
2023-05-19T05:14:43.214Z,102954.36
2023-05-19T05:15:46.549Z,102955.55
2023-05-19T05:16:50.016Z,102956.79
2023-05-19T05:17:57.048Z,102958.23
2023-05-19T05:19:01.257Z,102960.38
2023-05-19T05:20:06.336Z,102953.16
2023-05-19T05:21:09.272Z,102957.64
2023-05-19T05:22:12.305Z,102956.09
2023-05-19T05:23:16.749Z,102954.61
2023-05-19T05:24:21.082Z,102954.98
2023-05-19T05:25:28.921Z,102953.95
2023-05-19T05:26:33.686Z,102953.44
2023-05-19T05:27:36.884Z,102956.63
2023-05-19T05:28:41.462Z,102951.43
2023-05-19T05:29:44.374Z,102951.11
2023-05-19T05:30:47.177Z,102950.46
2023-05-19T05:31:50.528Z,102953.98
2023-05-19T05:32:53.408Z,102952.47
2023-05-19T05:34:15.002Z,102950.95
2023-05-19T05:35:18.726Z,102951.20
2023-05-19T05:36:21.587Z,102950.79
2023-05-19T05:37:24.419Z,102951.85
2023-05-19T05:38:27.904Z,102954.19
2023-05-19T05:39:31.904Z,102951.25
2023-05-19T05:40:35.734Z,102953.56
2023-05-19T05:41:38.803Z,102950.89
2023-05-19T05:42:46.463Z,102951.06
2023-05-19T05:43:49.575Z,102955.00
2023-05-19T05:44:52.400Z,102953.59
2023-05-19T05:45:55.477Z,102956.61
2023-05-19T05:46:58.384Z,102956.52
2023-05-19T05:48:01.449Z,102955.07
2023-05-19T05:49:04.667Z,102953.23
2023-05-19T05:50:09.094Z,102953.64
2023-05-19T05:51:12.320Z,102950.89
2023-05-19T05:52:15.327Z,102954.41
2023-05-19T05:53:22.120Z,102955.86
2023-05-19T05:54:26.694Z,102956.70
2023-05-19T05:55:29.864Z,102955.04
2023-05-19T05:56:37.217Z,102958.17
2023-05-19T05:57:44.156Z,102958.85
2023-05-19T05:58:47.078Z,102958.61
2023-05-19T05:59:50.864Z,102959.23
2023-05-19T06:00:57.715Z,102960.36
2023-05-19T06:02:01.712Z,102960.94
2023-05-19T06:03:05.991Z,102959.59
2023-05-19T06:04:08.892Z,102955.98
2023-05-19T06:05:12.697Z,102955.39
2023-05-19T06:06:16.419Z,102954.75
2023-05-19T06:07:19.146Z,102958.14
2023-05-19T06:08:22.080Z,102956.25
2023-05-19T06:09:25.028Z,102959.56
2023-05-19T06:10:28.533Z,102959.41
2023-05-19T06:11:32.242Z,102960.53
2023-05-19T06:12:35.402Z,102959.76
2023-05-19T06:13:38.840Z,102964.23
2023-05-19T06:14:43.015Z,102962.70
2023-05-19T06:16:06.233Z,102960.77
2023-05-19T06:17:15.252Z,102964.95
2023-05-19T06:18:18.305Z,102967.60
2023-05-19T06:19:25.438Z,102966.09
2023-05-19T06:20:28.656Z,102970.79
2023-05-19T06:21:32.379Z,102967.64
2023-05-19T06:22:35.357Z,102968.59
2023-05-19T06:23:38.585Z,102967.73
2023-05-19T06:24:41.676Z,102968.59
2023-05-19T06:25:45.206Z,102966.21
2023-05-19T06:26:48.364Z,102969.93
2023-05-19T06:27:52.459Z,102967.27
2023-05-19T06:28:56.465Z,102963.80
2023-05-19T06:29:59.985Z,102964.52
2023-05-19T06:31:03.404Z,102966.02
2023-05-19T06:32:22.565Z,102969.85
2023-05-19T06:33:28.216Z,102967.83
2023-05-19T06:34:32.796Z,102966.66
2023-05-19T06:35:35.713Z,102968.11
2023-05-19T06:36:38.728Z,102968.64
2023-05-19T06:37:41.539Z,102970.16
2023-05-19T06:38:44.377Z,102966.63
2023-05-19T06:39:47.850Z,102970.90
2023-05-19T06:40:50.791Z,102970.60
2023-05-19T06:41:54.420Z,102969.92
2023-05-19T06:43:16.692Z,102971.52
2023-05-19T06:44:30.272Z,102969.29
2023-05-19T06:45:33.276Z,102967.30
2023-05-19T06:46:37.220Z,102966.12
2023-05-19T06:47:44.612Z,102967.56
2023-05-19T06:48:47.791Z,102967.60
2023-05-19T06:49:55.183Z,102968.19
2023-05-19T06:51:00.002Z,102965.38
2023-05-19T06:52:03.157Z,102969.42
2023-05-19T06:53:06.275Z,102970.27
2023-05-19T06:54:11.195Z,102967.08
2023-05-19T06:55:14.053Z,102970.46
2023-05-19T06:56:18.599Z,102964.32
2023-05-19T06:57:21.652Z,102961.73
2023-05-19T06:58:24.534Z,102966.73
2023-05-19T06:59:27.290Z,102961.83
2023-05-19T07:00:30.088Z,102964.35
2023-05-19T07:01:34.418Z,102963.15
2023-05-19T07:02:37.590Z,102965.15
2023-05-19T07:03:41.019Z,102960.69
2023-05-19T07:04:44.743Z,102963.91
2023-05-19T07:05:48.510Z,102962.48
2023-05-19T07:06:51.424Z,102963.98
2023-05-19T07:07:54.591Z,102964.34
2023-05-19T07:09:00.095Z,102964.98
2023-05-19T07:10:04.634Z,102964.00
2023-05-19T07:11:07.867Z,102962.24
2023-05-19T07:12:10.895Z,102964.18
2023-05-19T07:13:13.763Z,102962.42
2023-05-19T07:14:17.002Z,102961.27
2023-05-19T07:15:20.119Z,102962.94
2023-05-19T07:16:23.006Z,102964.04
2023-05-19T07:17:26.281Z,102964.82
2023-05-19T07:18:31.963Z,102968.25
2023-05-19T07:19:35.210Z,102964.48
2023-05-19T07:20:37.921Z,102966.36
2023-05-19T07:21:42.557Z,102963.61
2023-05-19T07:22:46.208Z,102964.55
2023-05-19T07:23:49.096Z,102965.77
2023-05-19T07:24:51.826Z,102966.10
2023-05-19T07:25:56.320Z,102963.16
2023-05-19T07:26:59.361Z,102965.09
2023-05-19T07:28:02.480Z,102960.21
2023-05-19T07:29:05.324Z,102966.11
2023-05-19T07:30:08.486Z,102964.39
2023-05-19T07:31:11.253Z,102960.28
2023-05-19T07:32:14.274Z,102960.42
2023-05-19T07:33:17.452Z,102956.94
2023-05-19T07:34:22.107Z,102960.94
2023-05-19T07:35:26.654Z,102959.52
2023-05-19T07:36:29.429Z,102964.38
2023-05-19T07:37:32.163Z,102964.65
2023-05-19T07:38:35.233Z,102963.44
2023-05-19T07:39:37.957Z,102963.23
2023-05-19T07:40:40.843Z,102962.53
2023-05-19T07:41:43.652Z,102958.40
2023-05-19T07:42:46.427Z,102952.55
2023-05-19T07:43:50.042Z,102953.00
2023-05-19T07:44:52.857Z,102956.86
2023-05-19T07:45:58.675Z,102955.77
2023-05-19T07:47:01.607Z,102956.42
2023-05-19T07:48:04.777Z,102960.03
2023-05-19T07:49:07.579Z,102955.48
2023-05-19T07:50:10.431Z,102955.77
2023-05-19T07:51:13.360Z,102960.51
2023-05-19T07:52:18.241Z,102959.64
2023-05-19T07:53:22.696Z,102962.66
2023-05-19T07:54:26.180Z,102962.73
2023-05-19T07:55:28.919Z,102959.86
2023-05-19T07:56:31.672Z,102961.67
2023-05-19T07:57:34.426Z,102957.41
2023-05-19T07:58:37.221Z,102957.75
2023-05-19T07:59:40.219Z,102959.54
2023-05-19T08:00:43.226Z,102962.67
2023-05-19T08:01:45.950Z,102961.96
2023-05-19T08:02:48.899Z,102961.73
2023-05-19T08:03:51.929Z,102963.57
2023-05-19T08:04:54.997Z,102962.48
2023-05-19T08:05:58.057Z,102962.25
2023-05-19T08:07:00.848Z,102964.69
2023-05-19T08:08:03.898Z,102964.48
2023-05-19T08:09:06.713Z,102967.58
2023-05-19T08:10:09.681Z,102969.73
2023-05-19T08:11:12.563Z,102968.68
2023-05-19T08:12:15.504Z,102968.27
2023-05-19T08:13:18.293Z,102968.13
2023-05-19T08:14:22.921Z,102966.80
2023-05-19T08:15:26.621Z,102970.80
2023-05-19T08:16:29.703Z,102970.14
2023-05-19T08:17:32.491Z,102967.58
2023-05-19T08:18:35.328Z,102964.98
2023-05-19T08:19:38.124Z,102963.61
2023-05-19T08:20:41.142Z,102965.20
2023-05-19T08:21:44.855Z,102963.25
2023-05-19T08:22:47.636Z,102961.27
2023-05-19T08:23:50.624Z,102961.74
2023-05-19T08:24:53.424Z,102958.10
2023-05-19T08:25:56.450Z,102955.23
2023-05-19T08:26:59.468Z,102955.97
2023-05-19T08:28:02.346Z,102954.79
2023-05-19T08:29:05.133Z,102956.91
2023-05-19T08:30:08.284Z,102957.11
2023-05-19T08:31:11.289Z,102957.54
2023-05-19T08:32:14.235Z,102956.98
2023-05-19T08:33:17.498Z,102960.55
2023-05-19T08:34:20.808Z,102960.09
2023-05-19T08:35:23.780Z,102958.52
2023-05-19T08:36:27.693Z,102962.27
2023-05-19T08:37:31.985Z,102961.14
2023-05-19T08:38:36.029Z,102961.31
2023-05-19T08:39:38.765Z,102960.56
2023-05-19T08:40:42.234Z,102964.51
2023-05-19T08:41:45.024Z,102966.16
2023-05-19T08:42:47.884Z,102964.53
2023-05-19T08:43:50.777Z,102965.69
2023-05-19T08:44:53.473Z,102961.07
2023-05-19T08:45:56.551Z,102963.06
2023-05-19T08:47:02.850Z,102960.42
2023-05-19T08:48:06.434Z,102959.75
2023-05-19T08:49:12.168Z,102961.27
2023-05-19T08:50:17.311Z,102959.48
2023-05-19T08:51:23.200Z,102958.87
2023-05-19T08:52:33.073Z,102958.09
2023-05-19T08:53:40.683Z,102959.06
2023-05-19T08:54:46.970Z,102960.76
2023-05-19T08:56:01.468Z,102960.19
2023-05-19T08:57:05.612Z,102962.27
2023-05-19T08:58:08.765Z,102962.54
2023-05-19T08:59:13.302Z,102958.12
2023-05-19T09:00:17.015Z,102956.88
2023-05-19T09:01:20.465Z,102956.20
2023-05-19T09:02:23.825Z,102959.91
2023-05-19T09:03:29.134Z,102959.96
2023-05-19T09:04:32.342Z,102963.29
2023-05-19T09:05:35.704Z,102963.56
2023-05-19T09:06:41.109Z,102965.61
2023-05-19T09:07:44.988Z,102968.20
2023-05-19T09:08:48.320Z,102968.62
2023-05-19T09:09:51.080Z,102966.38
2023-05-19T09:10:53.852Z,102971.31
2023-05-19T09:11:56.749Z,102968.27
2023-05-19T09:12:59.776Z,102962.41
2023-05-19T09:14:02.558Z,102966.41
2023-05-19T09:15:06.021Z,102961.81
2023-05-19T09:16:08.909Z,102960.42
2023-05-19T09:17:12.234Z,102963.39
2023-05-19T09:18:15.334Z,102962.05
2023-05-19T09:19:18.189Z,102961.23
2023-05-19T09:20:21.080Z,102958.61
2023-05-19T09:21:33.270Z,102959.44
2023-05-19T09:22:40.906Z,102958.89
2023-05-19T09:23:47.143Z,102958.14
2023-05-19T09:24:50.014Z,102957.59
2023-05-19T09:25:53.426Z,102955.90
2023-05-19T09:27:00.443Z,102957.90
2023-05-19T09:28:03.626Z,102949.72
2023-05-19T09:29:16.498Z,102949.80
2023-05-19T09:30:19.777Z,102952.35
2023-05-19T09:31:22.609Z,102950.79
2023-05-19T09:32:26.792Z,102950.70
2023-05-19T09:33:31.059Z,102955.15
2023-05-19T09:34:33.794Z,102955.72
2023-05-19T09:35:37.115Z,102951.44
2023-05-19T09:36:42.657Z,102952.70
2023-05-19T09:37:46.326Z,102953.65
2023-05-19T09:38:49.352Z,102952.36
2023-05-19T09:39:53.528Z,102949.47
2023-05-19T09:40:58.018Z,102949.31
2023-05-19T09:42:04.535Z,102950.73
2023-05-19T09:43:08.091Z,102948.77
2023-05-19T09:44:32.779Z,102950.31
2023-05-19T09:45:36.136Z,102946.53
2023-05-19T09:46:38.997Z,102944.65
2023-05-19T09:47:42.234Z,102945.51
2023-05-19T09:48:45.474Z,102945.63
2023-05-19T09:49:48.291Z,102945.52
2023-05-19T09:50:53.288Z,102942.60
2023-05-19T09:51:59.418Z,102943.35
2023-05-19T09:53:02.194Z,102941.79
2023-05-19T09:54:05.065Z,102943.84
2023-05-19T09:55:12.704Z,102945.10
2023-05-19T09:56:16.132Z,102944.69
2023-05-19T09:57:25.090Z,102946.36
2023-05-19T09:58:31.317Z,102946.77
2023-05-19T09:59:34.816Z,102943.66
2023-05-19T10:00:37.987Z,102950.41
2023-05-19T10:01:41.685Z,102949.39
2023-05-19T10:02:45.726Z,102949.67
2023-05-19T10:03:49.181Z,102948.04
2023-05-19T10:04:52.472Z,102949.55
2023-05-19T10:05:55.845Z,102946.79
2023-05-19T10:06:59.845Z,102946.95
2023-05-19T10:08:03.338Z,102952.86
2023-05-19T10:09:06.228Z,102950.59
2023-05-19T10:10:09.653Z,102948.11
2023-05-19T10:11:12.482Z,102950.73
2023-05-19T10:12:15.415Z,102948.33
2023-05-19T10:13:18.566Z,102950.67
2023-05-19T10:14:25.407Z,102948.99
2023-05-19T10:15:28.274Z,102946.35
2023-05-19T10:16:31.773Z,102950.52
2023-05-19T10:17:36.019Z,102950.98
2023-05-19T10:18:40.252Z,102950.27
2023-05-19T10:19:43.968Z,102948.81
2023-05-19T10:20:47.706Z,102946.08
2023-05-19T10:21:51.077Z,102939.45
2023-05-19T10:22:53.913Z,102936.70
2023-05-19T10:23:56.698Z,102936.36
2023-05-19T10:24:59.461Z,102938.29
2023-05-19T10:26:05.099Z,102939.66
2023-05-19T10:27:10.288Z,102936.29
2023-05-19T10:28:14.808Z,102935.74
2023-05-19T10:29:21.797Z,102940.58
2023-05-19T10:30:33.432Z,102934.98
2023-05-19T10:31:36.873Z,102935.77
2023-05-19T10:32:40.867Z,102933.77
2023-05-19T10:33:59.624Z,102935.14
2023-05-19T10:35:21.406Z,102931.48
2023-05-19T10:36:35.505Z,102935.21
2023-05-19T10:37:45.023Z,102933.55
2023-05-19T10:38:52.598Z,102939.80
2023-05-19T10:39:55.999Z,102937.48
2023-05-19T10:41:11.791Z,102937.98
2023-05-19T10:42:30.052Z,102940.59
2023-05-19T10:43:35.891Z,102936.05
2023-05-19T10:44:57.386Z,102939.01
2023-05-19T10:46:00.325Z,102936.93
2023-05-19T10:47:06.372Z,102939.30
2023-05-19T10:48:14.352Z,102934.11
2023-05-19T10:49:20.739Z,102934.35
2023-05-19T10:50:24.034Z,102932.81
2023-05-19T10:51:33.564Z,102933.22
2023-05-19T10:52:39.988Z,102935.85
2023-05-19T10:53:46.465Z,102933.95
2023-05-19T10:54:49.626Z,102935.92
2023-05-19T10:56:03.970Z,102936.36
2023-05-19T10:57:08.325Z,102934.52
2023-05-19T10:58:11.512Z,102936.53
2023-05-19T10:59:40.483Z,102933.78
2023-05-19T11:00:43.612Z,102933.22
2023-05-19T11:01:47.187Z,102933.40
2023-05-19T11:02:56.375Z,102932.45
2023-05-19T11:04:05.011Z,102935.72
2023-05-19T11:05:09.638Z,102930.60
2023-05-19T11:06:26.506Z,102932.81
2023-05-19T11:07:29.980Z,102934.05
2023-05-19T11:08:33.852Z,102935.09
2023-05-19T11:09:42.970Z,102933.73
2023-05-19T11:10:46.471Z,102934.15
2023-05-19T11:11:50.462Z,102934.90
2023-05-19T11:12:58.186Z,102930.89
2023-05-19T11:14:01.357Z,102931.96
2023-05-19T11:15:04.342Z,102931.50
2023-05-19T11:16:08.425Z,102932.78
2023-05-19T11:17:15.752Z,102931.77
2023-05-19T11:18:19.425Z,102936.17
2023-05-19T11:19:32.090Z,102935.73
2023-05-19T11:20:38.894Z,102932.06
2023-05-19T11:21:50.396Z,102936.84
2023-05-19T11:23:10.171Z,102936.81
2023-05-19T11:24:31.848Z,102936.48
2023-05-19T11:25:49.812Z,102941.52
2023-05-19T11:26:54.789Z,102941.34
2023-05-19T11:27:57.987Z,102936.14
2023-05-19T11:29:00.979Z,102937.36
2023-05-19T11:30:07.693Z,102937.23
2023-05-19T11:31:10.865Z,102937.48
2023-05-19T11:32:14.091Z,102934.02
2023-05-19T11:33:20.017Z,102934.73
2023-05-19T11:34:25.983Z,102936.17
2023-05-19T11:35:29.580Z,102931.29
2023-05-19T11:36:33.222Z,102930.77
2023-05-19T11:37:36.786Z,102929.30
2023-05-19T11:38:39.614Z,102931.63
2023-05-19T11:39:42.345Z,102930.55
2023-05-19T11:40:45.433Z,102935.54
2023-05-19T11:41:48.141Z,102935.44
2023-05-19T11:42:51.212Z,102936.64
2023-05-19T11:43:53.974Z,102932.98
2023-05-19T11:44:56.774Z,102939.20
2023-05-19T11:46:00.953Z,102940.45
2023-05-19T11:47:04.480Z,102943.30
2023-05-19T11:48:10.994Z,102945.46
2023-05-19T11:49:15.096Z,102945.59
2023-05-19T11:50:18.105Z,102945.17
2023-05-19T11:51:21.681Z,102949.00
2023-05-19T11:52:24.837Z,102949.69
2023-05-19T11:53:33.257Z,102952.90
2023-05-19T11:54:39.314Z,102954.37
2023-05-19T11:55:43.600Z,102952.59
2023-05-19T11:56:47.507Z,102957.79
2023-05-19T11:59:05.097Z,102956.73
2023-05-19T12:00:09.485Z,102957.80
2023-05-19T12:01:12.300Z,102961.88
2023-05-19T12:02:25.150Z,102964.73
2023-05-19T12:03:29.782Z,102960.91
2023-05-19T12:04:32.833Z,102967.25
2023-05-19T12:05:43.660Z,102962.81
2023-05-19T12:06:49.082Z,102959.57
2023-05-19T12:07:52.458Z,102964.15
2023-05-19T12:08:56.413Z,102962.02
2023-05-19T12:09:59.880Z,102961.73
2023-05-19T12:11:02.652Z,102962.35
2023-05-19T12:12:05.557Z,102962.20
2023-05-19T12:13:09.989Z,102964.95
2023-05-19T12:14:13.203Z,102964.31
2023-05-19T12:15:18.767Z,102964.73
2023-05-19T12:16:21.596Z,102967.30
2023-05-19T12:17:24.499Z,102969.05
2023-05-19T12:18:34.092Z,102971.73
2023-05-19T12:19:36.984Z,102970.41
2023-05-19T12:20:39.777Z,102971.73
2023-05-19T12:21:42.608Z,102976.41
2023-05-19T12:22:46.075Z,102976.95
2023-05-19T12:23:49.387Z,102976.48